createdAt,value
2019-03-29T00:01:29.753Z,17.50
2019-03-29T00:03:58.138Z,17.50
2019-03-29T00:06:26.222Z,17.48
2019-03-29T00:08:54.288Z,17.47
2019-03-29T00:11:22.328Z,17.47
2019-03-29T00:13:50.334Z,17.46
2019-03-29T00:16:18.384Z,17.46
2019-03-29T00:18:46.427Z,17.45
2019-03-29T00:21:14.459Z,17.44
2019-03-29T00:23:42.507Z,17.44
2019-03-29T00:26:10.559Z,17.45
2019-03-29T00:28:38.598Z,17.44
2019-03-29T00:31:06.641Z,17.42
2019-03-29T00:33:34.725Z,17.42
2019-03-29T00:36:02.795Z,17.43
2019-03-29T00:38:30.876Z,17.40
2019-03-29T00:40:59.034Z,17.39
2019-03-29T00:43:27.288Z,17.39
2019-03-29T00:45:55.639Z,17.39
2019-03-29T00:48:23.668Z,17.38
2019-03-29T00:50:52.728Z,17.36
2019-03-29T00:53:20.790Z,17.36
2019-03-29T00:55:49.054Z,17.37
2019-03-29T00:58:17.073Z,17.37
2019-03-29T01:00:45.145Z,17.34
2019-03-29T01:03:17.467Z,17.36
2019-03-29T01:05:47.009Z,17.34
2019-03-29T01:08:15.300Z,17.34
2019-03-29T01:10:43.450Z,17.33
2019-03-29T01:13:11.490Z,17.33
2019-03-29T01:15:39.687Z,17.32
2019-03-29T01:18:07.872Z,17.31
2019-03-29T01:20:36.032Z,17.30
2019-03-29T01:23:04.089Z,17.31
2019-03-29T01:25:32.243Z,17.29
2019-03-29T01:28:00.434Z,17.30
2019-03-29T01:30:28.601Z,17.29
2019-03-29T01:32:56.890Z,17.29
2019-03-29T01:35:24.930Z,17.29
2019-03-29T01:37:53.048Z,17.28
2019-03-29T01:40:21.148Z,17.27
2019-03-29T01:42:49.255Z,17.28
2019-03-29T01:45:19.346Z,17.28
2019-03-29T01:47:48.981Z,17.28
2019-03-29T01:50:17.000Z,17.27
2019-03-29T01:55:33.148Z,17.26
2019-03-29T01:58:01.207Z,17.26
2019-03-29T02:00:29.436Z,17.27
2019-03-29T02:02:57.711Z,17.27
2019-03-29T02:05:26.082Z,17.26
2019-03-29T02:07:54.176Z,17.26
2019-03-29T02:10:22.883Z,17.25
2019-03-29T02:12:51.111Z,17.25
2019-03-29T02:15:19.306Z,17.26
2019-03-29T02:18:06.320Z,17.25
2019-03-29T02:20:35.438Z,17.25
2019-03-29T02:23:04.126Z,17.24
2019-03-29T02:25:32.471Z,17.23
2019-03-29T02:28:00.532Z,17.23
2019-03-29T02:30:28.587Z,17.24
2019-03-29T02:32:56.808Z,17.24
2019-03-29T02:35:24.861Z,17.23
2019-03-29T02:37:52.997Z,17.24
2019-03-29T02:40:22.706Z,17.23
2019-03-29T02:42:51.001Z,17.23
2019-03-29T02:45:19.215Z,17.21
2019-03-29T02:47:48.745Z,17.22
2019-03-29T02:50:16.933Z,17.21
2019-03-29T02:52:45.024Z,17.20
2019-03-29T02:55:13.168Z,17.21
2019-03-29T02:57:41.399Z,17.21
2019-03-29T03:00:12.581Z,17.21
2019-03-29T03:02:40.635Z,17.21
2019-03-29T03:05:08.690Z,17.19
2019-03-29T03:07:36.725Z,17.20
2019-03-29T03:10:04.803Z,17.20
2019-03-29T03:12:32.818Z,17.19
2019-03-29T03:15:01.195Z,17.20
2019-03-29T03:17:29.334Z,17.18
2019-03-29T03:19:57.414Z,17.18
2019-03-29T03:22:25.545Z,17.17
2019-03-29T03:24:53.648Z,17.18
2019-03-29T03:27:22.055Z,17.17
2019-03-29T03:29:50.148Z,17.18
2019-03-29T03:32:18.440Z,17.16
2019-03-29T03:34:46.461Z,17.18
2019-03-29T03:37:14.484Z,17.17
2019-03-29T03:39:42.574Z,17.15
2019-03-29T03:42:10.601Z,17.16
2019-03-29T03:44:38.677Z,17.13
2019-03-29T03:47:06.759Z,17.13
2019-03-29T03:49:34.822Z,17.13
2019-03-29T03:52:02.852Z,17.13
2019-03-29T03:54:31.040Z,17.13
2019-03-29T03:56:59.468Z,17.13
2019-03-29T03:59:27.569Z,17.12
2019-03-29T04:01:55.813Z,17.12
2019-03-29T04:04:23.850Z,17.12
2019-03-29T04:06:52.000Z,17.12
2019-03-29T04:09:20.139Z,17.11
2019-03-29T04:11:48.606Z,17.11
2019-03-29T04:14:16.663Z,17.11
2019-03-29T04:16:44.715Z,17.12
2019-03-29T04:19:12.811Z,17.11
2019-03-29T04:21:40.863Z,17.11
2019-03-29T04:24:09.301Z,17.11
2019-03-29T04:26:37.303Z,17.10
2019-03-29T04:29:05.579Z,17.10
2019-03-29T04:31:33.786Z,17.08
2019-03-29T04:34:01.952Z,17.08
2019-03-29T04:36:29.988Z,17.08
2019-03-29T04:38:58.153Z,17.08
2019-03-29T04:41:26.440Z,17.07
2019-03-29T04:43:54.522Z,17.09
2019-03-29T04:46:22.571Z,17.07
2019-03-29T04:48:50.632Z,17.07
2019-03-29T04:51:18.687Z,17.08
2019-03-29T04:53:46.772Z,17.07
2019-03-29T04:56:14.849Z,17.07
2019-03-29T04:58:42.893Z,17.05
2019-03-29T05:01:11.247Z,17.05
2019-03-29T05:03:39.331Z,17.04
2019-03-29T05:06:07.482Z,17.04
2019-03-29T05:08:38.312Z,17.04
2019-03-29T05:11:06.383Z,17.05
2019-03-29T05:13:34.461Z,17.02
2019-03-29T05:16:02.539Z,17.03
2019-03-29T05:18:30.567Z,17.02
2019-03-29T05:20:58.628Z,17.03
2019-03-29T05:23:26.663Z,17.03
2019-03-29T05:25:54.958Z,17.02
2019-03-29T05:28:22.995Z,17.01
2019-03-29T05:30:51.032Z,17.01
2019-03-29T05:33:19.068Z,17.01
2019-03-29T05:35:47.152Z,17.02
2019-03-29T05:38:15.586Z,17.01
2019-03-29T05:40:43.751Z,17.01
2019-03-29T05:43:11.776Z,17.01
2019-03-29T05:45:39.797Z,17.00
2019-03-29T05:48:08.019Z,17.00
2019-03-29T05:50:36.921Z,17.00
2019-03-29T05:53:05.058Z,16.98
2019-03-29T05:55:33.206Z,16.99
2019-03-29T05:58:01.327Z,17.00
2019-03-29T06:00:29.406Z,17.00
2019-03-29T06:02:57.462Z,17.00
2019-03-29T06:05:25.502Z,17.03
2019-03-29T06:07:53.677Z,17.03
2019-03-29T06:10:21.779Z,17.02
2019-03-29T06:12:50.201Z,17.03
2019-03-29T06:15:18.262Z,17.03
2019-03-29T06:17:48.973Z,17.03
2019-03-29T06:20:16.220Z,17.03
2019-03-29T06:22:44.546Z,17.03
2019-03-29T06:25:12.690Z,17.04
2019-03-29T06:27:40.755Z,17.04
2019-03-29T06:30:08.862Z,17.06
2019-03-29T06:32:36.923Z,17.07
2019-03-29T06:35:05.075Z,17.06
2019-03-29T06:37:33.197Z,17.08
2019-03-29T06:40:01.572Z,17.12
2019-03-29T06:42:29.631Z,17.17
2019-03-29T06:44:57.705Z,17.18
2019-03-29T06:47:25.979Z,17.19
2019-03-29T06:49:54.169Z,17.20
2019-03-29T06:52:22.378Z,17.23
2019-03-29T06:54:50.605Z,17.23
2019-03-29T06:57:18.663Z,17.25
2019-03-29T06:59:47.156Z,17.25
2019-03-29T07:02:15.259Z,17.24
2019-03-29T07:04:43.330Z,17.24
2019-03-29T07:07:11.395Z,17.25
2019-03-29T07:09:42.436Z,17.25
2019-03-29T07:12:10.472Z,17.25
2019-03-29T07:14:39.402Z,17.25
2019-03-29T07:17:10.169Z,17.26
2019-03-29T07:19:37.384Z,17.26
2019-03-29T07:22:05.549Z,17.28
2019-03-29T07:24:33.655Z,17.29
2019-03-29T07:27:01.688Z,17.32
2019-03-29T07:29:29.766Z,17.33
2019-03-29T07:31:57.818Z,17.31
2019-03-29T07:34:25.915Z,17.28
2019-03-29T07:36:54.006Z,17.27
2019-03-29T07:39:22.060Z,17.27
2019-03-29T07:41:50.237Z,17.26
2019-03-29T07:44:18.445Z,17.24
2019-03-29T07:46:46.506Z,17.25
2019-03-29T07:49:14.556Z,17.25
2019-03-29T07:51:42.592Z,17.24
2019-03-29T07:54:10.725Z,17.25
2019-03-29T07:56:38.772Z,17.25
2019-03-29T07:59:06.801Z,17.24
2019-03-29T08:01:35.644Z,17.26
2019-03-29T08:04:04.377Z,17.26
2019-03-29T08:06:32.400Z,18.55
2019-03-29T08:09:01.059Z,17.73
2019-03-29T08:11:45.567Z,17.44
2019-03-29T08:14:01.900Z,17.34
2019-03-29T08:16:29.977Z,17.28
2019-03-29T08:18:58.012Z,17.25
2019-03-29T08:21:26.122Z,17.23
2019-03-29T08:23:54.365Z,17.21
2019-03-29T08:26:22.503Z,17.22
2019-03-29T08:28:50.540Z,17.20
2019-03-29T08:31:18.620Z,17.20
2019-03-29T08:33:46.796Z,17.19
2019-03-29T08:36:14.984Z,17.19
2019-03-29T08:38:46.557Z,17.20
2019-03-29T08:41:15.024Z,17.18
2019-03-29T08:43:43.052Z,17.20
2019-03-29T08:46:11.126Z,17.20
2019-03-29T08:48:39.190Z,17.18
2019-03-29T08:51:25.947Z,17.20
2019-03-29T08:53:54.029Z,17.19
2019-03-29T08:56:22.099Z,17.20
2019-03-29T08:58:50.227Z,17.20
2019-03-29T09:01:19.511Z,17.20
2019-03-29T09:04:02.631Z,17.20
2019-03-29T09:06:17.658Z,17.21
2019-03-29T09:08:45.732Z,17.22
2019-03-29T09:11:13.768Z,17.23
2019-03-29T09:13:42.136Z,17.22
2019-03-29T09:16:10.134Z,17.23
2019-03-29T09:18:38.188Z,17.25
2019-03-29T09:21:06.741Z,17.25
2019-03-29T09:23:37.573Z,17.25
2019-03-29T09:26:05.621Z,17.27
2019-03-29T09:28:34.114Z,17.26
2019-03-29T09:31:02.249Z,17.28
2019-03-29T09:33:30.360Z,17.28
2019-03-29T09:35:58.449Z,17.29
2019-03-29T09:38:26.474Z,17.30
2019-03-29T09:40:58.761Z,17.30
2019-03-29T09:43:26.584Z,17.30
2019-03-29T09:45:54.168Z,17.32
2019-03-29T09:48:22.448Z,17.33
2019-03-29T09:50:51.123Z,17.33
2019-03-29T09:53:19.295Z,17.34
2019-03-29T09:55:47.378Z,17.35
2019-03-29T09:58:16.742Z,17.35
2019-03-29T10:00:45.041Z,17.37
2019-03-29T10:03:13.122Z,17.38
2019-03-29T10:05:41.178Z,17.37
2019-03-29T10:08:09.257Z,17.38
2019-03-29T10:10:37.325Z,17.38
2019-03-29T10:13:05.433Z,17.39
2019-03-29T10:15:33.447Z,17.39
2019-03-29T10:18:01.461Z,17.39
2019-03-29T10:20:29.615Z,17.42
2019-03-29T10:22:57.857Z,17.43
2019-03-29T10:25:25.899Z,17.55
2019-03-29T10:27:54.185Z,17.60
2019-03-29T10:30:22.243Z,17.68
2019-03-29T10:32:50.571Z,17.75
2019-03-29T10:35:18.695Z,17.67
2019-03-29T10:37:46.731Z,17.64
2019-03-29T10:40:14.888Z,17.62
2019-03-29T10:42:56.728Z,17.62
2019-03-29T10:45:13.155Z,17.67
2019-03-29T10:47:44.053Z,17.73
2019-03-29T10:50:11.459Z,17.76
2019-03-29T10:52:39.645Z,17.78
2019-03-29T10:55:07.731Z,17.80
2019-03-29T10:57:35.914Z,17.83
2019-03-29T11:00:03.955Z,17.84
2019-03-29T11:02:32.297Z,17.85
2019-03-29T11:05:00.564Z,17.87
2019-03-29T11:07:28.857Z,17.87
2019-03-29T11:09:56.983Z,17.88
2019-03-29T11:12:25.146Z,17.90
2019-03-29T11:14:53.176Z,17.89
2019-03-29T11:17:21.230Z,17.91
2019-03-29T11:19:49.365Z,17.93
2019-03-29T11:22:17.571Z,17.95
2019-03-29T11:24:47.560Z,17.95
2019-03-29T11:27:15.748Z,17.95
2019-03-29T11:29:44.008Z,17.95
2019-03-29T11:32:12.060Z,17.95
2019-03-29T11:34:40.132Z,17.96
2019-03-29T11:37:08.172Z,17.96
2019-03-29T11:39:36.202Z,17.98
2019-03-29T11:42:04.280Z,17.99
2019-03-29T11:44:32.459Z,18.01
2019-03-29T11:47:00.563Z,18.00
2019-03-29T11:49:28.615Z,17.98
2019-03-29T11:51:56.659Z,17.97
2019-03-29T11:54:24.694Z,17.96
2019-03-29T11:56:52.743Z,17.97
2019-03-29T11:59:20.849Z,17.98
2019-03-29T12:01:48.863Z,17.97
2019-03-29T12:04:16.955Z,17.98
2019-03-29T12:06:45.044Z,17.98
2019-03-29T12:09:13.598Z,17.98
2019-03-29T12:11:41.677Z,17.98
2019-03-29T12:14:10.386Z,17.98
2019-03-29T12:16:38.430Z,17.99
2019-03-29T12:19:06.507Z,17.99
2019-03-29T12:21:34.581Z,17.99
2019-03-29T12:24:02.662Z,18.00
2019-03-29T12:26:30.751Z,18.01
2019-03-29T12:28:58.817Z,18.00
2019-03-29T12:31:26.864Z,18.01
2019-03-29T12:33:54.939Z,18.01
2019-03-29T12:36:23.021Z,18.01
2019-03-29T12:38:51.327Z,18.02
2019-03-29T12:41:19.572Z,18.01
2019-03-29T12:43:55.418Z,18.03
2019-03-29T12:46:17.507Z,18.02
2019-03-29T12:48:45.537Z,18.03
2019-03-29T12:51:13.639Z,18.03
2019-03-29T12:53:41.734Z,18.03
2019-03-29T12:56:09.846Z,18.05
2019-03-29T12:58:37.940Z,18.04
2019-03-29T13:01:06.270Z,18.05
2019-03-29T13:03:34.330Z,18.05
2019-03-29T13:06:02.668Z,18.06
2019-03-29T13:08:30.729Z,18.06
2019-03-29T13:10:58.888Z,18.07
2019-03-29T13:13:27.058Z,18.07
2019-03-29T13:15:55.210Z,18.06
2019-03-29T13:18:23.245Z,18.08
2019-03-29T13:20:51.408Z,18.09
2019-03-29T13:23:19.565Z,18.09
2019-03-29T13:25:47.597Z,18.09
2019-03-29T13:28:15.994Z,18.10
2019-03-29T13:30:44.158Z,18.11
2019-03-29T13:33:12.386Z,18.11
2019-03-29T13:35:40.588Z,18.11
2019-03-29T13:38:08.628Z,18.11
2019-03-29T13:40:36.668Z,18.12
2019-03-29T13:43:04.741Z,18.12
2019-03-29T13:45:32.787Z,18.13
2019-03-29T13:48:00.833Z,18.14
2019-03-29T13:50:28.958Z,18.13
2019-03-29T13:52:57.100Z,18.13
2019-03-29T13:55:25.104Z,18.13
2019-03-29T13:57:53.214Z,18.14
2019-03-29T14:00:21.452Z,18.14
2019-03-29T14:02:49.565Z,18.14
2019-03-29T14:05:17.606Z,18.15
2019-03-29T14:07:45.836Z,18.14
2019-03-29T14:10:14.842Z,18.14
2019-03-29T14:12:42.873Z,18.14
2019-03-29T14:15:11.241Z,18.15
2019-03-29T14:17:39.310Z,18.14
2019-03-29T14:20:07.402Z,18.15
2019-03-29T14:22:35.617Z,18.15
2019-03-29T14:25:03.817Z,18.15
2019-03-29T14:27:31.856Z,18.16
2019-03-29T14:30:04.729Z,18.16
2019-03-29T14:32:29.752Z,18.18
2019-03-29T14:34:57.800Z,18.17
2019-03-29T14:37:25.849Z,18.18
2019-03-29T14:39:53.957Z,18.18
2019-03-29T14:42:22.519Z,18.19
2019-03-29T14:44:52.825Z,18.20
2019-03-29T14:47:20.396Z,18.17
2019-03-29T14:49:48.566Z,18.20
2019-03-29T14:52:16.611Z,18.20
2019-03-29T14:54:44.696Z,18.20
2019-03-29T14:57:12.761Z,18.20
2019-03-29T14:59:40.847Z,18.21
2019-03-29T15:02:08.925Z,18.20
2019-03-29T15:04:37.007Z,18.20
2019-03-29T15:07:05.321Z,18.21
2019-03-29T15:09:33.375Z,18.21
2019-03-29T15:12:01.464Z,18.22
2019-03-29T15:14:29.953Z,18.22
2019-03-29T15:16:58.095Z,18.21
2019-03-29T15:19:26.134Z,18.22
2019-03-29T15:21:54.179Z,18.22
2019-03-29T15:24:22.409Z,18.23
2019-03-29T15:26:50.617Z,18.23
2019-03-29T15:29:18.657Z,18.22
2019-03-29T15:31:46.703Z,18.23
2019-03-29T15:34:14.876Z,18.22
2019-03-29T15:36:42.956Z,18.23
2019-03-29T15:39:11.402Z,18.24
2019-03-29T15:41:39.613Z,18.23
2019-03-29T15:44:07.928Z,18.23
2019-03-29T15:46:36.009Z,18.23
2019-03-29T15:49:04.096Z,18.25
2019-03-29T15:51:32.164Z,18.24
2019-03-29T15:54:00.406Z,18.23
2019-03-29T15:56:29.721Z,18.24
2019-03-29T15:58:57.872Z,18.25
2019-03-29T16:01:27.319Z,18.23
2019-03-29T16:03:55.811Z,18.23
2019-03-29T16:06:24.048Z,18.24
2019-03-29T16:08:52.202Z,18.22
2019-03-29T16:11:22.470Z,18.23
2019-03-29T16:13:50.255Z,18.22
2019-03-29T16:16:18.355Z,18.22
2019-03-29T16:19:05.113Z,18.27
2019-03-29T16:21:33.188Z,18.30
2019-03-29T16:24:01.227Z,18.32
2019-03-29T16:26:29.663Z,18.32
2019-03-29T16:28:57.734Z,18.33
2019-03-29T16:31:26.169Z,18.33
2019-03-29T16:33:54.314Z,18.33
2019-03-29T16:36:22.562Z,18.33
2019-03-29T16:38:50.574Z,18.33
2019-03-29T16:41:18.679Z,18.34
2019-03-29T16:43:46.704Z,18.34
2019-03-29T16:46:14.759Z,18.31
2019-03-29T16:48:42.829Z,18.30
2019-03-29T16:51:10.903Z,18.28
2019-03-29T16:53:39.871Z,18.28
2019-03-29T16:56:08.034Z,18.28
2019-03-29T16:58:36.199Z,18.28
2019-03-29T17:01:04.279Z,18.29
2019-03-29T17:03:32.625Z,18.29
2019-03-29T17:06:00.697Z,18.27
2019-03-29T17:08:28.790Z,18.28
2019-03-29T17:10:56.887Z,18.28
2019-03-29T17:13:24.917Z,18.28
2019-03-29T17:16:01.667Z,18.28
2019-03-29T17:18:29.155Z,18.28
2019-03-29T17:20:52.809Z,18.30
2019-03-29T17:23:20.913Z,18.32
2019-03-29T17:25:49.130Z,18.32
2019-03-29T17:28:17.202Z,18.31
2019-03-29T17:30:57.249Z,18.30
2019-03-29T17:33:25.279Z,18.28
2019-03-29T17:35:53.317Z,18.28
2019-03-29T17:38:21.381Z,18.27
2019-03-29T17:40:49.508Z,18.26
2019-03-29T17:43:18.809Z,18.26
2019-03-29T17:45:47.220Z,18.25
2019-03-29T17:48:15.322Z,18.24
2019-03-29T17:50:43.411Z,18.24
2019-03-29T17:53:11.614Z,18.27
2019-03-29T17:55:42.481Z,18.26
2019-03-29T17:58:10.633Z,18.26
2019-03-29T18:00:38.682Z,18.25
2019-03-29T18:03:06.865Z,18.23
2019-03-29T18:05:34.930Z,18.23
2019-03-29T18:08:02.991Z,18.22
2019-03-29T18:10:31.373Z,18.22
2019-03-29T18:12:59.502Z,18.20
2019-03-29T18:15:27.807Z,18.19
2019-03-29T18:17:55.990Z,18.18
2019-03-29T18:20:24.023Z,18.17
2019-03-29T18:22:52.192Z,18.17
2019-03-29T18:25:20.380Z,18.17
2019-03-29T18:27:48.643Z,18.16
2019-03-29T18:30:16.817Z,18.15
2019-03-29T18:32:44.885Z,18.14
2019-03-29T18:35:12.924Z,18.13
2019-03-29T18:37:41.034Z,18.13
2019-03-29T18:40:09.203Z,18.12
2019-03-29T18:42:37.631Z,18.10
2019-03-29T18:45:05.850Z,18.13
2019-03-29T18:47:33.977Z,18.15
2019-03-29T18:50:02.031Z,18.16
2019-03-29T18:52:30.132Z,18.22
2019-03-29T18:54:58.325Z,18.20
2019-03-29T18:57:26.344Z,18.17
2019-03-29T18:59:54.420Z,18.17
2019-03-29T19:02:22.483Z,18.14
2019-03-29T19:04:50.547Z,18.15
2019-03-29T19:07:18.687Z,18.14
2019-03-29T19:09:47.122Z,18.13
2019-03-29T19:12:15.225Z,18.13
2019-03-29T19:14:43.307Z,18.13
2019-03-29T19:17:11.396Z,18.11
2019-03-29T19:19:39.486Z,18.12
2019-03-29T19:22:07.546Z,18.11
2019-03-29T19:24:35.715Z,18.10
2019-03-29T19:27:03.954Z,18.09
2019-03-29T19:29:32.140Z,18.10
2019-03-29T19:32:00.224Z,18.09
2019-03-29T19:34:28.390Z,18.10
2019-03-29T19:36:56.666Z,18.08
2019-03-29T19:39:24.755Z,18.08
2019-03-29T19:41:52.880Z,18.07
2019-03-29T19:44:21.078Z,18.07
2019-03-29T19:46:49.136Z,18.06
2019-03-29T19:49:17.292Z,18.06
2019-03-29T19:51:45.493Z,18.05
2019-03-29T19:54:13.866Z,18.03
2019-03-29T19:56:42.010Z,18.04
2019-03-29T19:59:10.120Z,18.04
2019-03-29T20:01:38.769Z,18.02
2019-03-29T20:04:09.633Z,18.02
2019-03-29T20:06:40.321Z,18.00
2019-03-29T20:09:08.750Z,18.02
2019-03-29T20:11:36.841Z,17.99
2019-03-29T20:14:04.888Z,17.97
2019-03-29T20:16:32.936Z,17.96
2019-03-29T20:19:01.193Z,17.94
2019-03-29T20:21:29.273Z,17.94
2019-03-29T20:23:58.439Z,17.93
2019-03-29T20:26:26.618Z,17.90
2019-03-29T20:28:54.725Z,17.91
2019-03-29T20:31:22.792Z,17.89
2019-03-29T20:33:50.902Z,17.90
2019-03-29T20:36:23.082Z,17.88
2019-03-29T20:38:48.894Z,17.88
2019-03-29T20:41:17.168Z,17.87
2019-03-29T20:43:45.413Z,17.87
2019-03-29T20:46:13.653Z,17.86
2019-03-29T20:48:41.853Z,17.85
2019-03-29T20:51:09.916Z,17.84
2019-03-29T20:53:38.221Z,17.83
2019-03-29T20:56:06.838Z,17.82
2019-03-29T20:58:35.028Z,17.83
2019-03-29T21:01:03.149Z,17.82
2019-03-29T21:03:31.453Z,17.84
2019-03-29T21:05:59.807Z,17.82
2019-03-29T21:08:27.958Z,17.82
2019-03-29T21:10:56.634Z,17.81
2019-03-29T21:13:24.713Z,17.79
2019-03-29T21:15:52.763Z,17.79
2019-03-29T21:18:20.904Z,17.78
2019-03-29T21:20:48.973Z,17.79
2019-03-29T21:23:17.097Z,17.80
2019-03-29T21:25:45.245Z,17.79
2019-03-29T21:28:13.361Z,17.78
2019-03-29T21:30:41.461Z,17.78
2019-03-29T21:33:09.629Z,17.76
2019-03-29T21:35:37.752Z,17.77
2019-03-29T21:38:05.965Z,17.76
2019-03-29T21:40:34.078Z,17.75
2019-03-29T21:43:02.282Z,17.74
2019-03-29T21:45:30.367Z,17.75
2019-03-29T21:48:08.453Z,17.76
2019-03-29T21:50:28.253Z,17.75
2019-03-29T21:52:56.319Z,17.73
2019-03-29T21:55:24.472Z,17.74
2019-03-29T21:57:52.830Z,17.73
2019-03-29T22:00:20.997Z,17.72
2019-03-29T22:02:49.378Z,17.71
2019-03-29T22:05:17.495Z,17.71
2019-03-29T22:07:45.890Z,17.70
2019-03-29T22:10:13.941Z,17.71
2019-03-29T22:12:43.234Z,17.69
2019-03-29T22:15:11.445Z,17.68
2019-03-29T22:17:39.523Z,17.69
2019-03-29T22:20:07.541Z,17.70
2019-03-29T22:22:35.619Z,17.76
2019-03-29T22:25:03.782Z,17.80
2019-03-29T22:27:31.812Z,17.83
2019-03-29T22:29:59.891Z,17.83
2019-03-29T22:32:27.935Z,17.85
2019-03-29T22:34:56.150Z,17.84
2019-03-29T22:37:24.324Z,17.85
2019-03-29T22:39:53.663Z,17.85
2019-03-29T22:42:21.730Z,17.86
2019-03-29T22:44:49.787Z,17.86
2019-03-29T22:47:17.850Z,17.87
2019-03-29T22:49:46.167Z,17.87
2019-03-29T22:52:14.250Z,17.88
2019-03-29T22:54:42.319Z,17.88
2019-03-29T22:57:10.386Z,17.89
2019-03-29T22:59:39.583Z,17.89
2019-03-29T23:02:07.763Z,17.87
2019-03-29T23:04:36.066Z,17.83
2019-03-29T23:07:04.318Z,17.81
2019-03-29T23:09:32.641Z,17.81
2019-03-29T23:12:00.714Z,17.77
2019-03-29T23:14:28.820Z,17.78
2019-03-29T23:16:56.917Z,17.79
2019-03-29T23:19:25.062Z,17.75
2019-03-29T23:21:53.143Z,17.76
2019-03-29T23:24:21.436Z,17.75
2019-03-29T23:26:49.746Z,17.74
2019-03-29T23:29:17.981Z,17.72
2019-03-29T23:31:46.212Z,17.73
2019-03-29T23:34:14.362Z,17.73
2019-03-29T23:36:42.594Z,17.72
2019-03-29T23:39:10.645Z,17.70
2019-03-29T23:41:38.931Z,17.69
2019-03-29T23:44:07.028Z,17.68
2019-03-29T23:46:35.088Z,17.67
2019-03-29T23:49:03.171Z,17.67
2019-03-29T23:51:31.184Z,17.67
2019-03-29T23:53:59.287Z,17.66
2019-03-29T23:56:27.392Z,17.67
2019-03-29T23:58:55.476Z,17.65
